Time;durP1;ratioP1;P1;durP2;ratioP2;P2;SDS_P1;SDS_P2;PMS_P1;PMS_P2;Temp;Humidity;BMP_temperature;BMP_pressure;BME280_temperature;BME280_humidity;BME280_pressure;Samples;Min_cycle;Max_cycle;Signal;HPM_P1;HPM_P2
2022/07/31 00:00:26;;;;;;;4.70;2.33;;;;;;;20.46;59.08;101631.13;5073976;28;20814;-73
2022/07/31 00:02:55;;;;;;;5.70;3.05;;;;;;;20.41;59.30;101627.88;5052494;28;20527;-72
2022/07/31 00:05:24;;;;;;;6.25;2.80;;;;;;;20.37;59.33;101620.97;5087400;28;20121;-72
2022/07/31 00:07:54;;;;;;;4.82;2.92;;;;;;;20.34;59.53;101619.34;5071183;28;20041;-72
2022/07/31 00:10:21;;;;;;;3.63;2.60;;;;;;;20.30;59.92;101618.66;5068167;28;20491;-72
2022/07/31 00:12:49;;;;;;;4.13;2.50;;;;;;;20.29;59.59;101624.13;5082125;28;20071;-72
2022/07/31 00:15:19;;;;;;;2.60;2.22;;;;;;;20.26;59.80;101614.44;5071273;28;20486;-73
2022/07/31 00:17:47;;;;;;;4.90;2.97;;;;;;;20.23;59.67;101611.06;5087495;28;20040;-73
2022/07/31 00:20:16;;;;;;;5.38;2.80;;;;;;;20.23;59.92;101613.75;5075657;28;20041;-73
2022/07/31 00:22:47;;;;;;;7.57;2.85;;;;;;;20.20;59.90;101617.47;5078418;28;20048;-73
2022/07/31 00:25:16;;;;;;;4.57;2.47;;;;;;;20.18;60.05;101614.03;5070954;28;20515;-73
2022/07/31 00:27:43;;;;;;;5.00;2.47;;;;;;;20.15;60.37;101603.47;5069727;28;20041;-73
2022/07/31 00:30:12;;;;;;;5.65;2.70;;;;;;;20.15;60.11;101603.47;5070242;28;20130;-73
2022/07/31 00:32:40;;;;;;;4.38;2.60;;;;;;;20.16;60.11;101599.84;5087027;28;20033;-73
2022/07/31 00:35:12;;;;;;;4.60;2.47;;;;;;;20.16;59.96;101597.19;5069888;28;20075;-73
2022/07/31 00:37:43;;;;;;;4.32;2.35;;;;;;;20.17;59.95;101596.22;5070607;28;20041;-74
2022/07/31 00:40:14;;;;;;;4.50;2.50;;;;;;;20.19;60.02;101601.50;5069903;28;20045;-74
2022/07/31 00:42:42;;;;;;;3.28;2.60;;;;;;;20.19;59.92;101605.03;5069473;28;20133;-73
2022/07/31 00:45:12;;;;;;;4.03;2.75;;;;;;;20.17;59.90;101605.13;5079385;28;20098;-73
2022/07/31 00:47:40;;;;;;;5.93;2.50;;;;;;;20.16;59.95;101598.06;5069651;28;20097;-75
2022/07/31 00:50:09;;;;;;;4.20;2.58;;;;;;;20.15;60.03;101593.66;5063858;28;20519;-75
2022/07/31 00:52:37;;;;;;;4.20;2.47;;;;;;;20.14;60.09;101591.09;5069434;28;20128;-75
2022/07/31 00:55:05;;;;;;;3.25;2.50;;;;;;;20.12;60.05;101590.31;5074298;28;20477;-75
2022/07/31 00:57:32;;;;;;;4.53;2.83;;;;;;;20.09;60.06;101590.47;5059495;28;20037;-75
2022/07/31 01:00:00;;;;;;;4.53;2.75;;;;;;;20.09;60.09;101583.31;5084032;28;20069;-74
2022/07/31 01:02:28;;;;;;;5.47;2.80;;;;;;;20.06;60.26;101580.81;5088070;28;20041;-74
2022/07/31 01:04:55;;;;;;;4.30;2.47;;;;;;;20.07;59.95;101590.56;5071995;28;20065;-75
2022/07/31 01:07:22;;;;;;;5.57;3.00;;;;;;;20.03;60.14;101594.38;5073878;28;20048;-74
2022/07/31 01:09:52;;;;;;;4.57;3.10;;;;;;;20.02;60.33;101588.16;5078033;28;20088;-74
2022/07/31 01:12:34;;;;;;;6.13;2.88;;;;;;;19.98;60.46;101591.13;5074476;28;20036;-75
2022/07/31 01:15:09;;;;;;;5.00;2.80;;;;;;;19.96;60.67;101590.34;5066731;28;21249;-75
2022/07/31 01:17:39;;;;;;;4.47;2.47;;;;;;;19.93;60.70;101593.19;5090017;28;20041;-74
2022/07/31 01:20:07;;;;;;;7.45;3.10;;;;;;;19.86;60.80;101582.84;5088601;28;20048;-74
2022/07/31 01:23:15;;;;;;;5.68;3.00;;;;;;;19.82;60.77;101578.59;5082004;28;20496;-74
2022/07/31 01:26:48;;;;;;;4.28;2.75;;;;;;;19.76;60.82;101589.66;5088730;28;20091;-73
2022/07/31 01:29:36;;;;;;;4.88;2.60;;;;;;;19.71;61.55;101584.56;5085995;28;20042;-72
2022/07/31 01:32:17;;;;;;;4.40;3.05;;;;;;;19.65;61.89;101579.53;5081401;28;20089;-72
2022/07/31 01:34:53;;;;;;;6.53;3.65;;;;;;;19.65;62.17;101586.72;5088506;28;20052;-71
2022/07/31 01:37:28;;;;;;;9.13;3.83;;;;;;;19.65;62.28;101584.91;5061362;28;20045;-72
2022/07/31 01:40:10;;;;;;;10.18;3.80;;;;;;;19.64;62.16;101576.97;5059914;28;20535;-73
2022/07/31 01:42:45;;;;;;;5.85;3.28;;;;;;;19.64;62.74;101574.28;5110356;28;20068;-72
2022/07/31 01:45:17;;;;;;;6.57;3.70;;;;;;;19.65;63.34;101579.53;5073750;28;20043;-72
2022/07/31 01:47:48;;;;;;;14.55;4.43;;;;;;;19.64;63.36;101574.28;5068687;28;20120;-71
2022/07/31 01:50:20;;;;;;;7.30;4.18;;;;;;;19.58;63.48;101564.81;5081055;28;20041;-72
2022/07/31 01:53:09;;;;;;;5.47;4.18;;;;;;;19.57;63.81;101562.22;5072841;28;20051;-72
2022/07/31 01:55:41;;;;;;;6.90;4.40;;;;;;;19.53;63.79;101549.03;5092767;28;20158;-72
2022/07/31 01:58:35;;;;;;;3.83;3.08;;;;;;;19.48;64.20;101547.56;5052365;28;20420;-72
2022/07/31 02:01:11;;;;;;;6.85;3.40;;;;;;;19.44;64.39;101554.91;5074207;28;20041;-71
2022/07/31 02:03:43;;;;;;;4.40;3.13;;;;;;;19.36;64.17;101554.47;5091420;28;20049;-73
2022/07/31 02:06:18;;;;;;;5.15;3.50;;;;;;;19.26;64.58;101548.75;5071594;28;20297;-72
2022/07/31 02:08:49;;;;;;;5.90;3.40;;;;;;;19.21;65.02;101549.03;5089787;28;20083;-73
2022/07/31 02:11:19;;;;;;;4.40;3.47;;;;;;;19.18;64.75;101554.53;5088686;28;20037;-72
2022/07/31 02:13:48;;;;;;;5.53;3.53;;;;;;;19.16;64.77;101537.75;5071277;28;20575;-72
2022/07/31 02:16:19;;;;;;;5.72;3.90;;;;;;;19.15;64.87;101540.47;5071968;28;20044;-72
2022/07/31 02:18:54;;;;;;;8.57;3.90;;;;;;;19.15;64.67;101546.72;5070927;28;20106;-72
2022/07/31 02:21:25;;;;;;;7.13;4.15;;;;;;;19.14;64.61;101550.31;5070336;28;20057;-72
2022/07/31 02:23:53;;;;;;;6.50;3.55;;;;;;;19.14;65.11;101549.44;5088826;28;20127;-71
2022/07/31 02:26:23;;;;;;;5.32;3.50;;;;;;;19.16;65.17;101553.78;5072763;28;20055;-72
2022/07/31 02:28:52;;;;;;;4.85;3.70;;;;;;;19.16;65.10;101552.91;5086444;28;20041;-71
2022/07/31 02:31:22;;;;;;;6.32;3.85;;;;;;;19.18;65.12;101565.22;5072036;28;20132;-71
2022/07/31 02:33:51;;;;;;;5.63;3.42;;;;;;;19.20;65.43;101559.81;5070014;28;20045;-71
2022/07/31 02:36:22;;;;;;;6.00;3.70;;;;;;;19.19;65.42;101561.59;5062812;28;20529;-71
2022/07/31 02:38:51;;;;;;;4.38;3.50;;;;;;;19.21;65.19;101548.19;5072701;28;20037;-71
2022/07/31 02:41:20;;;;;;;7.68;4.40;;;;;;;19.25;65.51;101560.41;5088356;28;20056;-71
2022/07/31 02:43:48;;;;;;;6.43;4.90;;;;;;;19.26;66.14;101562.13;5069950;28;20041;-70
2022/07/31 02:46:22;;;;;;;7.93;4.97;;;;;;;19.25;66.35;101549.72;5066903;28;20700;-72
2022/07/31 02:48:51;;;;;;;7.28;5.00;;;;;;;19.27;66.68;101549.66;5077513;28;20089;-72
2022/07/31 02:51:22;;;;;;;7.50;5.15;;;;;;;19.27;66.83;101550.50;5075057;28;20052;-72
2022/07/31 02:53:50;;;;;;;7.68;5.40;;;;;;;19.26;67.37;101532.72;5071736;28;20221;-71
2022/07/31 02:56:21;;;;;;;9.57;5.47;;;;;;;19.27;67.41;101542.47;5070163;28;20048;-71
2022/07/31 02:58:48;;;;;;;7.28;5.72;;;;;;;19.24;68.06;101551.53;5059625;28;20041;-71
2022/07/31 03:01:25;;;;;;;9.02;6.18;;;;;;;19.20;67.79;101547.28;5083322;28;20033;-72
2022/07/31 03:03:54;;;;;;;8.65;5.82;;;;;;;19.21;67.74;101550.84;5063235;28;20069;-72
2022/07/31 03:06:21;;;;;;;10.63;6.70;;;;;;;19.23;67.42;101556.94;5073115;28;20043;-72
2022/07/31 03:08:48;;;;;;;10.20;7.47;;;;;;;19.23;67.10;101551.59;5075670;28;20496;-72
2022/07/31 03:11:20;;;;;;;11.93;8.73;;;;;;;19.23;66.96;101547.13;5087615;28;20115;-72
2022/07/31 03:13:49;;;;;;;11.43;8.85;;;;;;;19.23;66.71;101544.47;5071722;28;20124;-72
2022/07/31 03:16:16;;;;;;;12.25;9.13;;;;;;;19.20;66.83;101541.94;5073325;28;20045;-72
2022/07/31 03:18:46;;;;;;;11.38;9.18;;;;;;;19.18;66.74;101541.16;5085937;28;20551;-72
2022/07/31 03:21:13;;;;;;;12.10;10.32;;;;;;;19.17;67.31;101536.81;5072486;28;20136;-72
2022/07/31 03:23:41;;;;;;;14.02;10.50;;;;;;;19.12;67.26;101546.03;5086591;28;20041;-72
2022/07/31 03:26:18;;;;;;;15.73;10.93;;;;;;;19.07;67.76;101548.94;5087678;28;20106;-72
2022/07/31 03:28:48;;;;;;;15.68;11.35;;;;;;;18.99;67.97;101545.81;5063011;28;20091;-72
2022/07/31 03:31:15;;;;;;;19.08;11.63;;;;;;;18.91;68.09;101539.06;5071407;28;20504;-74
2022/07/31 03:33:42;;;;;;;16.50;12.52;;;;;;;18.88;67.84;101527.69;5085894;28;20041;-72
2022/07/31 03:36:09;;;;;;;14.45;11.90;;;;;;;18.85;67.92;101528.72;5074351;28;20043;-72
2022/07/31 03:38:38;;;;;;;13.23;11.52;;;;;;;18.88;68.25;101539.22;5069862;28;20138;-72
2022/07/31 03:41:21;;;;;;;13.40;11.68;;;;;;;18.84;68.31;101540.34;5071556;28;20041;-72
2022/07/31 03:43:49;;;;;;;16.45;11.35;;;;;;;18.84;68.34;101529.66;5070796;28;20053;-72
2022/07/31 03:46:22;;;;;;;17.05;12.68;;;;;;;18.85;68.18;101538.50;5087416;28;20843;-72
2022/07/31 03:48:50;;;;;;;16.10;11.90;;;;;;;18.90;68.21;101542.66;5087476;28;20072;-72
2022/07/31 03:51:19;;;;;;;18.30;12.15;;;;;;;18.93;67.97;101539.00;5088236;28;20523;-72
2022/07/31 03:53:47;;;;;;;13.25;11.75;;;;;;;18.94;67.85;101535.38;5086351;28;20091;-72
2022/07/31 03:56:36;;;;;;;13.38;10.75;;;;;;;18.96;67.93;101540.66;5071346;28;20072;-72
2022/07/31 03:59:03;;;;;;;18.10;12.57;;;;;;;18.95;67.72;101539.78;5067620;28;20044;-72
2022/07/31 04:01:33;;;;;;;16.63;12.52;;;;;;;18.95;67.53;101536.25;5090133;28;20079;-73
2022/07/31 04:04:33;;;;;;;18.73;12.57;;;;;;;18.97;68.05;101542.38;5068780;28;20871;-73
2022/07/31 04:07:04;;;;;;;16.15;12.45;;;;;;;18.96;67.66;101541.50;5088117;28;20159;-73
2022/07/31 04:09:31;;;;;;;14.40;12.90;;;;;;;18.98;67.65;101544.06;5070131;28;20501;-72
2022/07/31 04:11:59;;;;;;;16.48;12.23;;;;;;;18.98;67.81;101544.97;5083614;28;20099;-72
2022/07/31 04:14:26;;;;;;;15.80;11.63;;;;;;;18.99;67.12;101538.66;5070194;28;20131;-72
2022/07/31 04:16:53;;;;;;;15.50;11.50;;;;;;;19.01;67.70;101539.47;5070223;28;20080;-72
2022/07/31 04:19:22;;;;;;;14.90;12.38;;;;;;;19.03;67.60;101542.03;5086499;28;20047;-72
2022/07/31 04:21:49;;;;;;;18.23;12.93;;;;;;;19.00;67.47;101544.88;5069984;28;20080;-70
2022/07/31 04:24:17;;;;;;;18.65;11.88;;;;;;;19.00;67.65;101544.88;5085953;28;20037;-70
2022/07/31 04:26:54;;;;;;;14.57;11.95;;;;;;;18.98;67.70;101542.28;5069529;28;20036;-71
2022/07/31 04:29:27;;;;;;;14.18;12.25;;;;;;;18.96;67.85;101543.31;5071721;28;20045;-71
2022/07/31 04:31:55;;;;;;;13.88;12.02;;;;;;;18.95;67.77;101549.59;5092029;28;20514;-71
2022/07/31 04:34:30;;;;;;;16.00;11.60;;;;;;;18.94;67.57;101546.06;5081701;28;20124;-71
2022/07/31 04:36:57;;;;;;;15.77;11.30;;;;;;;18.96;67.49;101548.66;5069971;28;20064;-72
2022/07/31 04:39:25;;;;;;;19.48;11.23;;;;;;;18.98;67.37;101544.06;5085587;28;20127;-71
2022/07/31 04:41:52;;;;;;;12.38;10.90;;;;;;;19.01;67.24;101547.47;5069285;28;20055;-72
2022/07/31 04:44:23;;;;;;;10.63;9.52;;;;;;;19.04;66.95;101551.78;5084303;28;20509;-71
2022/07/31 04:47:01;;;;;;;14.57;11.00;;;;;;;19.06;66.81;101550.75;5067448;28;20048;-72
2022/07/31 04:49:33;;;;;;;15.20;10.68;;;;;;;19.10;66.84;101548.75;5083173;28;20122;-71
2022/07/31 04:52:03;;;;;;;11.20;10.00;;;;;;;19.12;66.86;101548.69;5069269;28;20049;-72
2022/07/31 04:54:32;;;;;;;14.00;10.52;;;;;;;19.15;66.82;101552.06;5067305;28;20515;-71
2022/07/31 04:56:59;;;;;;;13.27;10.65;;;;;;;19.14;66.62;101552.13;5083450;28;20045;-71
2022/07/31 04:59:27;;;;;;;15.38;9.73;;;;;;;19.14;66.80;101552.13;5081155;28;20041;-72
2022/07/31 05:02:14;;;;;;;12.70;10.73;;;;;;;19.13;66.94;101564.63;5066596;28;20072;-72
2022/07/31 05:04:41;;;;;;;13.45;9.68;;;;;;;19.09;67.17;101555.03;5085308;28;20500;-72
2022/07/31 05:07:08;;;;;;;12.73;10.10;;;;;;;19.09;67.72;101558.59;5069601;28;20052;-71
2022/07/31 05:09:35;;;;;;;12.60;10.45;;;;;;;19.08;67.61;101556.88;5082728;28;20473;-72
2022/07/31 05:12:07;;;;;;;12.98;10.13;;;;;;;19.13;67.40;101558.44;5069847;28;20140;-72
2022/07/31 05:14:34;;;;;;;11.48;10.27;;;;;;;19.18;67.28;101556.34;5085088;28;20466;-72
2022/07/31 05:17:01;;;;;;;12.68;10.05;;;;;;;19.24;67.25;101556.88;5069349;28;20052;-72
2022/07/31 05:19:45;;;;;;;18.05;10.70;;;;;;;19.23;67.17;101544.47;5084500;28;20041;-73
2022/07/31 05:22:34;;;;;;;14.13;9.40;;;;;;;19.29;67.28;101550.41;5078412;28;20040;-73
2022/07/31 05:25:19;;;;;;;16.20;9.63;;;;;;;19.34;67.12;101543.00;5060069;28;20053;-73
2022/07/31 05:27:46;;;;;;;12.00;8.80;;;;;;;19.39;67.22;101538.25;5069918;28;20509;-72
2022/07/31 05:30:16;;;;;;;13.80;10.52;;;;;;;19.46;67.02;101536.09;5068279;28;20112;-72
2022/07/31 05:32:57;;;;;;;16.63;10.20;;;;;;;19.50;66.71;101541.16;5068939;28;20046;-72
2022/07/31 05:35:24;;;;;;;12.32;9.43;;;;;;;19.55;66.50;101543.56;5070812;28;20087;-72
2022/07/31 05:37:51;;;;;;;16.15;10.85;;;;;;;19.56;66.48;101537.28;5066254;28;20057;-72
2022/07/31 05:40:29;;;;;;;15.57;10.35;;;;;;;19.55;66.37;101540.91;5057326;28;20041;-72
2022/07/31 05:43:16;;;;;;;15.18;10.82;;;;;;;19.55;66.44;101539.13;5070602;28;20072;-72
2022/07/31 05:46:05;;;;;;;12.65;10.02;;;;;;;19.59;66.25;101538.91;5065961;28;20417;-71
2022/07/31 05:48:32;;;;;;;13.07;9.57;;;;;;;19.57;66.22;101543.50;5076680;28;20045;-71
2022/07/31 05:50:59;;;;;;;12.30;10.07;;;;;;;19.56;65.93;101534.63;5095703;28;20043;-71
2022/07/31 05:53:31;;;;;;;10.93;9.10;;;;;;;19.54;66.44;101528.47;5084681;28;20041;-73
2022/07/31 05:56:17;;;;;;;18.40;10.32;;;;;;;19.50;66.85;101524.28;5072018;28;20044;-72
2022/07/31 05:58:48;;;;;;;14.48;10.73;;;;;;;19.49;67.39;101533.25;5073160;28;20041;-72
2022/07/31 06:01:15;;;;;;;12.50;9.98;;;;;;;19.50;68.22;101534.97;5076355;28;20480;-71
2022/07/31 06:03:43;;;;;;;14.48;10.48;;;;;;;19.44;68.27;101538.84;5074340;28;20033;-71
2022/07/31 06:06:32;;;;;;;12.75;10.25;;;;;;;19.36;68.86;101544.63;5075160;28;20044;-71
2022/07/31 06:09:00;;;;;;;23.08;11.18;;;;;;;19.29;69.27;101534.38;5076237;28;20041;-71
2022/07/31 06:11:34;;;;;;;13.02;9.63;;;;;;;19.32;70.12;101552.91;5087019;28;20052;-70
2022/07/31 06:14:02;;;;;;;11.73;9.27;;;;;;;19.32;70.47;101548.44;5067578;28;20045;-71
2022/07/31 06:16:48;;;;;;;11.13;7.57;;;;;;;19.32;70.19;101551.13;5086101;28;20041;-71
2022/07/31 06:19:17;;;;;;;12.65;9.55;;;;;;;19.35;70.38;101550.91;5064411;28;20055;-71
2022/07/31 06:21:50;;;;;;;13.05;8.70;;;;;;;19.39;70.24;101552.50;5087973;28;20705;-71
2022/07/31 06:24:21;;;;;;;13.52;8.85;;;;;;;19.45;70.59;101558.41;5083345;28;20049;-71
2022/07/31 06:26:48;;;;;;;11.65;9.32;;;;;;;19.49;70.65;101555.47;5072470;28;20048;-71
2022/07/31 06:29:15;;;;;;;12.45;7.63;;;;;;;19.52;70.59;101551.81;5072917;28;20041;-71
2022/07/31 06:31:42;;;;;;;9.13;8.23;;;;;;;19.56;70.91;101561.34;5062697;28;20068;-71
2022/07/31 06:34:10;;;;;;;12.38;8.52;;;;;;;19.58;70.77;101562.13;5073059;28;20037;-71
2022/07/31 06:36:40;;;;;;;12.55;7.95;;;;;;;19.56;70.36;101566.69;5071978;28;20056;-72
2022/07/31 06:39:11;;;;;;;10.43;8.32;;;;;;;19.56;70.55;101564.03;5098739;28;20596;-70
2022/07/31 06:41:57;;;;;;;13.45;8.95;;;;;;;19.58;70.36;101559.47;5081629;28;20098;-70
2022/07/31 06:44:30;;;;;;;9.65;7.78;;;;;;;19.61;70.54;101570.00;5072477;28;20041;-70
2022/07/31 06:47:18;;;;;;;8.48;7.15;;;;;;;19.69;70.84;101554.34;5073950;28;20056;-70
2022/07/31 06:50:07;;;;;;;12.75;7.40;;;;;;;19.80;70.46;101566.25;5072811;28;20317;-70
2022/07/31 06:52:38;;;;;;;8.77;6.57;;;;;;;19.84;70.18;101554.44;5086848;28;20056;-70
2022/07/31 06:55:06;;;;;;;11.27;7.38;;;;;;;19.90;70.01;101555.91;5071356;28;20037;-70
2022/07/31 06:57:33;;;;;;;8.25;6.82;;;;;;;19.97;69.86;101551.94;5072031;28;20045;-70
2022/07/31 07:00:01;;;;;;;8.75;6.47;;;;;;;20.05;69.79;101546.09;5086465;28;20053;-70
2022/07/31 07:02:46;;;;;;;8.43;6.55;;;;;;;20.09;69.53;101548.53;5085836;28;20892;-70
2022/07/31 07:05:14;;;;;;;8.77;6.05;;;;;;;20.21;69.44;101549.59;5080625;27;20080;-71
2022/07/31 07:07:45;;;;;;;10.23;5.63;;;;;;;20.32;68.87;101533.75;5049872;28;20042;-71
2022/07/31 07:10:13;;;;;;;8.93;6.72;;;;;;;20.39;68.47;101533.38;5068679;28;20045;-71
2022/07/31 07:12:59;;;;;;;10.45;6.65;;;;;;;20.50;68.58;101535.41;5051413;28;20038;-71
2022/07/31 07:15:31;;;;;;;9.75;6.40;;;;;;;20.58;68.23;101535.78;5055914;28;20173;-71
2022/07/31 07:17:59;;;;;;;9.13;6.15;;;;;;;20.72;68.07;101540.28;5064128;28;20081;-71
2022/07/31 07:20:33;;;;;;;8.13;6.55;;;;;;;20.84;67.48;101539.56;5054513;28;20063;-72
2022/07/31 07:23:00;;;;;;;8.48;5.80;;;;;;;20.93;67.30;101538.97;5072514;28;20049;-71
2022/07/31 07:25:35;;;;;;;11.02;5.97;;;;;;;21.03;66.79;101533.88;5069241;28;20799;-72
2022/07/31 07:28:05;;;;;;;10.73;5.53;;;;;;;21.14;66.47;101543.06;5070239;28;20056;-72
2022/07/31 07:30:34;;;;;;;6.72;5.22;;;;;;;21.09;66.30;101538.88;5061598;28;20042;-71
2022/07/31 07:33:04;;;;;;;7.30;5.05;;;;;;;21.06;66.35;101540.88;5060627;28;20045;-72
2022/07/31 07:35:31;;;;;;;7.50;5.47;;;;;;;20.96;66.86;101537.06;5058033;28;20052;-71
2022/07/31 07:38:06;;;;;;;7.00;5.13;;;;;;;20.90;66.87;101533.81;5053396;28;20063;-71
2022/07/31 07:40:35;;;;;;;5.97;4.93;;;;;;;20.90;66.96;101530.28;5050724;28;20132;-71
2022/07/31 07:43:03;;;;;;;6.95;5.13;;;;;;;21.00;67.15;101526.06;5051399;28;20042;-71
2022/07/31 07:45:34;;;;;;;10.60;5.40;;;;;;;21.15;66.70;101524.22;5045519;28;20073;-72
2022/07/31 07:48:01;;;;;;;10.38;5.53;;;;;;;21.25;66.02;101519.97;5061135;28;20042;-72
2022/07/31 07:51:03;;;;;;;7.55;5.47;;;;;;;21.39;66.03;101523.56;5048704;28;20053;-70
2022/07/31 07:53:36;;;;;;;7.18;5.32;;;;;;;21.40;65.69;101528.84;5045126;28;20099;-71
2022/07/31 07:56:29;;;;;;;9.30;5.65;;;;;;;21.40;65.94;101520.81;5064036;28;20538;-71
2022/07/31 07:59:15;;;;;;;9.10;5.90;;;;;;;21.49;65.94;101516.63;5047556;28;20046;-71
2022/07/31 08:02:04;;;;;;;9.57;5.93;;;;;;;21.52;65.58;101529.84;5057747;28;20041;-71
2022/07/31 08:04:33;;;;;;;11.00;5.93;;;;;;;21.52;65.61;101526.28;5033473;28;20052;-70
2022/07/31 08:07:00;;;;;;;9.68;6.10;;;;;;;21.56;65.56;101528.69;5042633;28;20046;-70
2022/07/31 08:09:34;;;;;;;8.85;5.72;;;;;;;21.62;65.73;101531.94;5063471;28;20046;-71
2022/07/31 08:12:20;;;;;;;10.13;6.32;;;;;;;21.62;65.22;101532.78;5043721;28;20099;-71
2022/07/31 08:15:07;;;;;;;10.07;6.68;;;;;;;21.64;65.27;101532.72;5047660;28;20072;-71
2022/07/31 08:17:43;;;;;;;9.75;6.88;;;;;;;21.66;65.05;101523.59;5044578;28;20053;-71
2022/07/31 08:20:10;;;;;;;9.90;6.20;;;;;;;21.65;65.11;101515.66;5061946;28;20105;-71
2022/07/31 08:22:38;;;;;;;7.43;5.93;;;;;;;21.71;65.12;101521.47;5066801;28;20129;-72
2022/07/31 08:25:06;;;;;;;6.45;5.75;;;;;;;21.83;64.83;101519.78;5050234;28;20120;-72
2022/07/31 08:27:40;;;;;;;12.15;7.03;;;;;;;21.99;64.62;101518.72;5049748;28;20042;-71
2022/07/31 08:30:09;;;;;;;8.45;6.80;;;;;;;22.15;64.40;101518.53;5067122;28;20128;-71
2022/07/31 08:32:37;;;;;;;7.90;5.72;;;;;;;22.33;63.66;101505.69;5050228;28;20048;-72
2022/07/31 08:35:05;;;;;;;8.45;6.47;;;;;;;22.43;63.71;101505.94;5045279;28;20132;-71
2022/07/31 08:37:32;;;;;;;8.73;6.18;;;;;;;22.54;62.76;101505.16;5061409;28;20049;-71
2022/07/31 08:40:23;;;;;;;9.10;6.40;;;;;;;22.58;62.84;101506.69;5065810;28;20042;-72
2022/07/31 08:42:50;;;;;;;7.85;6.53;;;;;;;22.68;62.72;101510.44;5064209;28;20045;-71
2022/07/31 08:45:18;;;;;;;8.75;6.63;;;;;;;22.77;62.53;101514.28;5051092;28;20057;-71
2022/07/31 08:47:56;;;;;;;8.35;6.13;;;;;;;22.80;61.84;101512.22;5063048;28;20545;-71
2022/07/31 08:50:28;;;;;;;9.25;6.15;;;;;;;22.81;61.97;101515.78;5062520;28;20118;-71
2022/07/31 08:53:01;;;;;;;8.25;5.45;;;;;;;22.83;61.91;101518.34;5065525;28;20147;-71
2022/07/31 08:55:51;;;;;;;7.22;5.00;;;;;;;22.88;61.80;101508.16;5045273;28;20063;-72
2022/07/31 08:58:24;;;;;;;;;;;;;;;23.00;61.69;101509.91;5063681;28;20813;-71
2022/07/31 09:00:52;;;;;;;7.38;5.45;;;;;;;23.15;60.86;101507.09;5066850;28;20331;-71
2022/07/31 09:03:19;;;;;;;6.18;5.05;;;;;;;23.18;60.65;101507.72;5063940;28;20037;-71
2022/07/31 09:06:05;;;;;;;9.77;4.82;;;;;;;23.30;60.95;101505.13;5050370;28;20494;-71
2022/07/31 09:08:36;;;;;;;6.22;5.32;;;;;;;23.44;60.28;101499.59;5065586;28;20047;-72
2022/07/31 09:11:11;;;;;;;8.65;5.63;;;;;;;23.55;60.04;101507.69;5066445;28;20045;-71
2022/07/31 09:13:58;;;;;;;5.75;4.90;;;;;;;23.68;59.46;101498.72;5065405;28;20046;-72
2022/07/31 09:16:46;;;;;;;7.25;5.03;;;;;;;23.76;59.24;101498.13;5060336;28;20033;-72
2022/07/31 09:19:14;;;;;;;9.45;5.20;;;;;;;23.84;59.29;101496.59;5049410;28;20042;-72
2022/07/31 09:22:27;;;;;;;5.70;4.55;;;;;;;23.88;58.75;101491.81;5066319;28;20509;-72
2022/07/31 09:25:17;;;;;;;7.03;4.68;;;;;;;23.86;59.02;101496.47;5050547;28;20048;-72
2022/07/31 09:27:46;;;;;;;7.85;5.22;;;;;;;23.87;59.08;101492.78;5053735;28;20053;-72
2022/07/31 09:30:14;;;;;;;8.25;5.38;;;;;;;23.93;59.02;101495.00;5052512;28;20070;-72
2022/07/31 09:33:17;;;;;;;8.75;4.75;;;;;;;24.15;59.13;101488.00;5049025;28;20544;-72
2022/07/31 09:36:07;;;;;;;6.45;4.70;;;;;;;24.26;58.30;101496.09;5049963;28;20080;-72
2022/07/31 09:38:41;;;;;;;6.55;4.95;;;;;;;24.29;58.35;101492.28;5068654;28;20045;-72
2022/07/31 09:41:27;;;;;;;7.28;4.65;;;;;;;24.31;58.60;101483.13;5053400;28;20080;-72
2022/07/31 09:44:23;;;;;;;6.28;4.43;;;;;;;24.42;58.35;101486.81;5069520;28;20049;-71
2022/07/31 09:46:52;;;;;;;6.45;4.97;;;;;;;24.51;57.86;101488.78;5065143;28;20044;-72
2022/07/31 09:49:30;;;;;;;7.72;4.60;;;;;;;24.45;57.51;101492.81;5052923;28;20511;-72
2022/07/31 09:52:00;;;;;;;9.35;4.60;;;;;;;24.42;58.92;101493.03;5053135;28;20048;-71
2022/07/31 09:54:30;;;;;;;8.73;4.68;;;;;;;24.49;59.88;101496.97;5056931;28;20053;-71
2022/07/31 09:56:57;;;;;;;5.82;4.60;;;;;;;24.57;60.49;101492.81;5053898;28;20065;-71
2022/07/31 09:59:28;;;;;;;6.82;4.10;;;;;;;24.56;60.66;101491.09;5068796;28;20065;-71
2022/07/31 10:01:56;;;;;;;6.07;4.30;;;;;;;24.50;59.16;101484.38;5056328;28;20072;-72
2022/07/31 10:04:24;;;;;;;6.90;4.20;;;;;;;24.44;59.06;101495.59;5053786;28;20125;-72
2022/07/31 10:06:52;;;;;;;6.70;4.15;;;;;;;24.37;59.20;101489.84;5051879;28;20048;-72
2022/07/31 10:09:20;;;;;;;6.75;4.50;;;;;;;24.36;59.29;101493.53;5049292;28;20034;-72
2022/07/31 10:11:57;;;;;;;7.47;4.20;;;;;;;24.33;59.06;101500.00;5071164;28;20037;-72
2022/07/31 10:14:34;;;;;;;5.60;3.78;;;;;;;24.27;60.00;101495.13;5085173;28;20092;-72
2022/07/31 10:17:04;;;;;;;5.43;3.97;;;;;;;24.25;59.48;101501.59;5069152;28;20544;-71
2022/07/31 10:19:46;;;;;;;5.45;4.57;;;;;;;24.13;60.05;101500.72;5067569;28;20037;-72
2022/07/31 10:22:39;;;;;;;6.32;4.82;;;;;;;24.03;61.38;101503.28;5068798;28;20045;-72
2022/07/31 10:25:11;;;;;;;6.65;5.03;;;;;;;24.03;62.45;101495.19;5052077;28;20497;-71
2022/07/31 10:27:40;;;;;;;;;;;;;;;24.07;62.07;101480.50;5068748;28;20503;-71
2022/07/31 10:30:12;;;;;;;6.72;4.45;;;;;;;24.39;61.71;101484.34;5051122;28;19929;-71
2022/07/31 10:32:44;;;;;;;9.82;5.05;;;;;;;24.60;60.99;101487.16;5051183;28;20652;-71
2022/07/31 10:36:07;;;;;;;5.72;4.35;;;;;;;24.79;59.44;101484.72;5050936;28;20534;-71
2022/07/31 10:39:16;;;;;;;8.05;4.47;;;;;;;24.93;59.53;101478.22;5049357;28;20037;-71
2022/07/31 10:42:18;;;;;;;7.00;3.97;;;;;;;25.11;59.20;101489.34;5067068;28;20138;-71
2022/07/31 10:44:56;;;;;;;5.30;4.40;;;;;;;25.26;58.30;101481.81;5051365;28;20065;-71
2022/07/31 10:47:54;;;;;;;5.32;4.10;;;;;;;25.49;57.74;101479.09;5068328;28;20045;-72
2022/07/31 10:50:39;;;;;;;6.80;4.45;;;;;;;25.66;57.25;101476.78;5051717;28;20119;-71
2022/07/31 10:53:19;;;;;;;8.60;4.43;;;;;;;25.71;56.48;101475.41;5062728;28;20456;-71
2022/07/31 10:56:12;;;;;;;6.03;3.95;;;;;;;25.71;56.49;101469.19;5067974;28;20051;-71
2022/07/31 10:58:57;;;;;;;4.65;4.10;;;;;;;25.62;56.38;101464.56;5067150;28;20073;-72
2022/07/31 11:01:51;;;;;;;6.65;4.00;;;;;;;25.59;56.79;101449.47;5050718;28;20127;-71
2022/07/31 11:04:38;;;;;;;3.95;3.58;;;;;;;25.72;56.69;101460.09;5052863;28;20045;-71
2022/07/31 11:07:25;;;;;;;4.57;3.75;;;;;;;25.80;56.28;101454.00;5057100;28;20060;-71
2022/07/31 11:10:20;;;;;;;9.55;3.60;;;;;;;25.86;55.48;101450.81;5052798;28;20033;-71
2022/07/31 11:13:06;;;;;;;6.28;3.40;;;;;;;26.00;55.61;101450.44;5051691;28;20041;-72
2022/07/31 11:15:46;;;;;;;3.40;3.10;;;;;;;26.19;55.43;101447.03;5066997;28;20125;-72
2022/07/31 11:18:40;;;;;;;3.83;3.40;;;;;;;26.34;55.07;101444.00;5046643;28;20503;-71
2022/07/31 11:21:09;;;;;;;7.63;3.10;;;;;;;26.56;54.61;101436.66;5052419;28;20073;-72
2022/07/31 11:23:57;;;;;;;5.25;2.70;;;;;;;26.73;53.49;101449.53;5070027;28;20046;-73
2022/07/31 11:26:31;;;;;;;5.00;2.92;;;;;;;26.67;52.62;101437.44;5066971;28;20085;-73
2022/07/31 11:29:10;;;;;;;6.55;3.10;;;;;;;26.49;52.81;101437.22;5050789;28;20088;-73
2022/07/31 11:32:03;;;;;;;5.72;2.70;;;;;;;26.48;53.02;101440.91;5050190;28;20483;-73
2022/07/31 11:34:55;;;;;;;8.45;2.70;;;;;;;26.29;52.88;101436.28;5050501;28;20042;-73
2022/07/31 11:37:27;;;;;;;4.68;2.80;;;;;;;26.17;53.51;101429.25;5054720;28;20050;-72
2022/07/31 11:40:14;;;;;;;5.13;2.75;;;;;;;25.99;53.46;101429.88;5050679;28;20048;-73
2022/07/31 11:42:45;;;;;;;3.88;2.50;;;;;;;25.81;54.27;101420.63;5050898;28;20137;-72
2022/07/31 11:45:21;;;;;;;4.90;2.53;;;;;;;25.77;54.22;101424.59;5049661;28;20769;-72
2022/07/31 11:47:50;;;;;;;3.80;2.88;;;;;;;25.65;54.54;101423.78;5051592;28;20126;-72
2022/07/31 11:50:44;;;;;;;4.22;2.53;;;;;;;25.56;55.57;101428.16;5063025;28;20117;-72
2022/07/31 11:53:12;;;;;;;3.78;2.33;;;;;;;25.56;55.00;101423.59;5051990;28;20140;-73
2022/07/31 11:55:54;;;;;;;3.83;2.28;;;;;;;25.52;55.50;101426.69;5049019;28;20528;-72